createdAt,value
2018-09-30T00:01:17.333Z,9.70
2018-09-30T00:03:46.010Z,9.60
2018-09-30T00:06:14.677Z,9.60
2018-09-30T00:08:43.366Z,9.60
2018-09-30T00:12:41.498Z,9.60
2018-09-30T00:15:10.251Z,9.60
2018-09-30T00:17:38.885Z,9.60
2018-09-30T00:20:07.605Z,9.50
2018-09-30T00:22:36.394Z,9.50
2018-09-30T00:25:10.471Z,9.50
2018-09-30T00:27:39.155Z,9.50
2018-09-30T00:30:07.830Z,9.50
2018-09-30T00:32:36.609Z,9.40
2018-09-30T00:35:05.315Z,9.40
2018-09-30T00:37:33.983Z,9.40
2018-09-30T00:40:02.686Z,9.40
2018-09-30T00:42:31.424Z,9.40
2018-09-30T00:45:00.091Z,9.30
2018-09-30T00:47:29.471Z,9.30
2018-09-30T00:49:58.094Z,9.30
2018-09-30T00:52:26.994Z,9.30
2018-09-30T00:54:55.667Z,9.30
2018-09-30T00:57:24.372Z,9.30
2018-09-30T00:59:53.005Z,9.30
2018-09-30T01:02:21.717Z,9.30
2018-09-30T01:04:50.366Z,9.20
2018-09-30T01:07:18.980Z,9.20
2018-09-30T01:09:47.676Z,9.20
2018-09-30T01:12:16.527Z,9.20
2018-09-30T01:14:45.211Z,9.20
2018-09-30T01:17:13.919Z,9.20
2018-09-30T01:19:43.037Z,9.20
2018-09-30T01:22:11.797Z,9.20
2018-09-30T01:24:40.519Z,9.20
2018-09-30T01:27:09.190Z,9.20
2018-09-30T01:29:37.872Z,9.20
2018-09-30T01:32:06.517Z,9.20
2018-09-30T01:34:35.158Z,9.20
2018-09-30T01:37:03.819Z,9.10
2018-09-30T01:39:32.594Z,9.10
2018-09-30T01:42:01.405Z,9.10
2018-09-30T01:44:30.098Z,9.00
2018-09-30T01:46:58.809Z,9.00
2018-09-30T01:49:28.282Z,9.00
2018-09-30T01:53:00.030Z,9.00
2018-09-30T01:55:28.965Z,9.00
2018-09-30T01:57:57.632Z,8.90
2018-09-30T02:00:26.370Z,8.90
2018-09-30T02:02:55.048Z,8.90
2018-09-30T02:05:23.773Z,8.80
2018-09-30T02:07:52.480Z,8.80
2018-09-30T02:10:21.151Z,8.80
2018-09-30T02:12:49.861Z,8.80
2018-09-30T02:15:18.491Z,8.80
2018-09-30T02:17:47.189Z,8.70
2018-09-30T02:20:15.885Z,8.70
2018-09-30T02:22:44.586Z,8.70
2018-09-30T02:25:13.333Z,8.70
2018-09-30T02:27:42.042Z,8.70
2018-09-30T02:30:10.712Z,8.70
2018-09-30T02:32:39.435Z,8.70
2018-09-30T02:35:08.082Z,8.60
2018-09-30T02:37:36.833Z,8.60
2018-09-30T02:40:05.573Z,8.70
2018-09-30T02:42:34.273Z,8.60
2018-09-30T02:45:02.950Z,8.60
2018-09-30T02:47:31.722Z,8.60
2018-09-30T02:50:00.414Z,8.50
2018-09-30T02:52:29.288Z,8.60
2018-09-30T02:54:58.000Z,8.50
2018-09-30T02:57:26.809Z,8.50
2018-09-30T02:59:55.444Z,8.50
2018-09-30T03:02:24.262Z,8.50
2018-09-30T03:04:52.978Z,8.40
2018-09-30T03:07:26.995Z,8.40
2018-09-30T03:09:55.777Z,8.40
2018-09-30T03:12:24.513Z,8.40
2018-09-30T03:14:53.210Z,8.30
2018-09-30T03:17:21.874Z,8.30
2018-09-30T03:19:50.614Z,8.30
2018-09-30T03:22:19.354Z,8.30
2018-09-30T03:24:48.037Z,8.30
2018-09-30T03:27:16.733Z,8.20
2018-09-30T03:29:45.421Z,8.20
2018-09-30T03:32:14.266Z,8.20
2018-09-30T03:34:42.950Z,8.20
2018-09-30T03:37:11.701Z,8.20
2018-09-30T03:39:40.452Z,8.20
2018-09-30T03:42:09.144Z,8.20
2018-09-30T03:44:37.832Z,8.20
2018-09-30T03:47:06.479Z,8.10
2018-09-30T03:49:35.179Z,8.20
2018-09-30T03:52:03.986Z,8.10
2018-09-30T03:54:32.710Z,8.10
2018-09-30T03:57:01.426Z,8.10
2018-09-30T03:59:30.726Z,8.10
2018-09-30T04:01:59.449Z,8.10
2018-09-30T04:04:28.144Z,8.10
2018-09-30T04:06:56.805Z,8.10
2018-09-30T04:09:25.484Z,8.10
2018-09-30T04:11:54.206Z,8.10
2018-09-30T04:14:22.927Z,8.10
2018-09-30T04:16:51.713Z,8.10
2018-09-30T04:19:20.392Z,8.10
2018-09-30T04:21:49.231Z,8.10
2018-09-30T04:24:17.867Z,8.10
2018-09-30T04:26:46.532Z,8.00
2018-09-30T04:29:15.278Z,8.10
2018-09-30T04:31:44.037Z,8.10
2018-09-30T04:34:12.722Z,8.10
2018-09-30T04:36:41.433Z,8.10
2018-09-30T04:39:10.353Z,8.10
2018-09-30T04:41:39.160Z,8.10
2018-09-30T04:44:07.949Z,8.00
2018-09-30T04:46:36.644Z,8.00
2018-09-30T04:49:05.611Z,8.00
2018-09-30T04:51:34.312Z,8.00
2018-09-30T04:54:03.029Z,8.00
2018-09-30T04:56:31.777Z,8.00
2018-09-30T04:59:00.498Z,8.00
2018-09-30T05:01:29.353Z,8.00
2018-09-30T05:03:58.028Z,8.00
2018-09-30T05:06:26.758Z,8.00
2018-09-30T05:08:55.525Z,8.00
2018-09-30T05:11:24.373Z,8.00
2018-09-30T05:13:54.009Z,7.90
2018-09-30T05:16:22.719Z,8.00
2018-09-30T05:18:51.407Z,8.00
2018-09-30T05:21:20.160Z,7.90
2018-09-30T05:23:48.803Z,8.00
2018-09-30T05:26:17.456Z,7.90
2018-09-30T05:28:46.136Z,7.90
2018-09-30T05:31:14.842Z,7.90
2018-09-30T05:33:43.616Z,7.90
2018-09-30T05:36:12.399Z,7.90
2018-09-30T05:38:41.077Z,8.00
2018-09-30T05:41:09.753Z,8.00
2018-09-30T05:43:38.393Z,7.90
2018-09-30T05:46:07.140Z,8.00
2018-09-30T05:48:35.809Z,8.00
2018-09-30T05:51:04.536Z,8.00
2018-09-30T05:53:33.215Z,8.00
2018-09-30T05:56:01.906Z,8.00
2018-09-30T05:58:30.579Z,8.00
2018-09-30T06:00:59.354Z,8.10
2018-09-30T06:03:28.316Z,8.00
2018-09-30T06:05:56.982Z,8.10
2018-09-30T06:08:25.731Z,8.10
2018-09-30T06:10:54.492Z,8.10
2018-09-30T06:13:23.158Z,8.20
2018-09-30T06:15:51.983Z,8.20
2018-09-30T06:18:20.649Z,8.30
2018-09-30T06:20:49.535Z,8.30
2018-09-30T06:23:18.294Z,8.30
2018-09-30T06:25:46.983Z,8.40
2018-09-30T06:28:15.663Z,8.40
2018-09-30T06:30:44.464Z,8.40
2018-09-30T06:33:13.137Z,8.50
2018-09-30T06:35:41.979Z,8.50
2018-09-30T06:38:10.688Z,8.50
2018-09-30T06:40:39.505Z,8.60
2018-09-30T06:43:08.174Z,8.60
2018-09-30T06:45:36.914Z,8.70
2018-09-30T06:48:05.615Z,8.70
2018-09-30T06:50:34.471Z,8.80
2018-09-30T06:53:03.431Z,8.90
2018-09-30T06:55:32.961Z,8.90
2018-09-30T06:58:01.683Z,9.00
2018-09-30T07:00:30.554Z,9.10
2018-09-30T07:02:59.207Z,9.20
2018-09-30T07:05:27.950Z,9.20
2018-09-30T07:07:56.663Z,9.20
2018-09-30T07:10:25.410Z,9.30
2018-09-30T07:12:54.217Z,9.40
2018-09-30T07:15:22.941Z,9.40
2018-09-30T07:17:51.641Z,9.50
2018-09-30T07:20:20.386Z,9.60
2018-09-30T07:22:49.124Z,9.60
2018-09-30T07:25:17.736Z,9.70
2018-09-30T07:27:46.357Z,9.90
2018-09-30T07:30:15.148Z,10.00
2018-09-30T07:32:43.945Z,10.20
2018-09-30T07:35:12.617Z,10.30
2018-09-30T07:37:41.327Z,10.40
2018-09-30T07:40:10.109Z,10.50
2018-09-30T07:42:38.773Z,10.50
2018-09-30T07:45:07.441Z,10.60
2018-09-30T07:47:36.111Z,10.70
2018-09-30T07:50:04.774Z,10.70
2018-09-30T07:52:33.564Z,10.80
2018-09-30T07:55:02.238Z,10.90
2018-09-30T07:57:31.367Z,10.90
2018-09-30T08:00:00.045Z,11.00
2018-09-30T08:02:28.975Z,11.10
2018-09-30T08:04:57.729Z,11.20
2018-09-30T08:07:26.677Z,11.30
2018-09-30T08:09:55.389Z,11.30
2018-09-30T08:12:24.223Z,11.40
2018-09-30T08:14:54.415Z,11.60
2018-09-30T08:17:23.411Z,11.90
2018-09-30T08:19:52.136Z,12.40
2018-09-30T08:22:20.903Z,12.60
2018-09-30T08:24:49.998Z,12.80
2018-09-30T08:27:18.695Z,13.10
2018-09-30T08:29:47.445Z,13.40
2018-09-30T08:32:16.541Z,13.50
2018-09-30T08:34:45.315Z,13.40
2018-09-30T08:37:18.269Z,13.20
2018-09-30T08:39:47.023Z,13.20
2018-09-30T08:42:15.801Z,13.00
2018-09-30T08:44:44.550Z,12.80
2018-09-30T08:47:13.393Z,12.80
2018-09-30T08:49:43.100Z,12.90
2018-09-30T08:52:11.899Z,13.00
2018-09-30T08:54:41.600Z,13.10
2018-09-30T08:57:10.310Z,13.40
2018-09-30T08:59:39.138Z,13.60
2018-09-30T09:02:07.884Z,13.80
2018-09-30T09:04:36.645Z,14.10
2018-09-30T09:07:05.394Z,14.20
2018-09-30T09:09:34.994Z,14.30
2018-09-30T09:12:03.731Z,14.50
2018-09-30T09:14:32.486Z,14.50
2018-09-30T09:17:01.218Z,14.40
2018-09-30T09:19:30.007Z,14.20
2018-09-30T09:21:58.907Z,14.20
2018-09-30T09:24:27.765Z,14.40
2018-09-30T09:26:56.518Z,14.80
2018-09-30T09:29:25.261Z,15.00
2018-09-30T09:31:54.621Z,15.20
2018-09-30T09:34:23.509Z,15.40
2018-09-30T09:36:52.414Z,15.60
2018-09-30T09:39:21.220Z,15.60
2018-09-30T09:41:50.016Z,15.40
2018-09-30T09:44:18.674Z,15.20
2018-09-30T09:46:47.355Z,14.90
2018-09-30T09:49:16.058Z,14.80
2018-09-30T09:51:44.835Z,15.00
2018-09-30T09:54:13.522Z,15.20
2018-09-30T09:56:42.199Z,15.20
2018-09-30T09:59:10.970Z,15.10
2018-09-30T10:01:39.708Z,14.80
2018-09-30T10:04:08.347Z,14.70
2018-09-30T10:06:37.050Z,14.60
2018-09-30T10:09:06.746Z,14.60
2018-09-30T10:11:35.529Z,14.70
2018-09-30T10:14:04.227Z,15.10
2018-09-30T10:16:33.468Z,15.50
2018-09-30T10:19:02.116Z,15.50
2018-09-30T10:21:30.884Z,15.40
2018-09-30T10:23:59.594Z,15.50
2018-09-30T10:26:28.369Z,15.50
2018-09-30T10:28:57.120Z,15.40
2018-09-30T10:31:25.887Z,15.50
2018-09-30T10:33:54.677Z,15.50
2018-09-30T10:36:23.481Z,15.40
2018-09-30T10:38:52.339Z,15.50
2018-09-30T10:41:21.127Z,15.60
2018-09-30T10:43:49.857Z,15.70
2018-09-30T10:46:18.574Z,15.60
2018-09-30T10:48:47.257Z,15.60
2018-09-30T10:51:15.996Z,15.60
2018-09-30T10:53:44.762Z,15.60
2018-09-30T10:56:13.495Z,15.50
2018-09-30T10:58:42.373Z,15.50
2018-09-30T11:01:11.286Z,15.60
2018-09-30T11:03:39.948Z,15.70
2018-09-30T11:06:11.330Z,15.70
2018-09-30T11:08:45.113Z,15.70
2018-09-30T11:11:14.378Z,15.80
2018-09-30T11:13:43.894Z,15.90
2018-09-30T11:16:12.688Z,16.20
2018-09-30T11:18:41.498Z,16.40
2018-09-30T11:21:10.395Z,16.50
2018-09-30T11:23:39.109Z,16.50
2018-09-30T11:26:07.953Z,16.50
2018-09-30T11:28:36.794Z,16.50
2018-09-30T11:31:05.703Z,16.50
2018-09-30T11:33:34.489Z,16.60
2018-09-30T11:36:03.146Z,16.70
2018-09-30T11:38:32.006Z,16.70
2018-09-30T11:41:00.753Z,16.90
2018-09-30T11:43:29.455Z,17.10
2018-09-30T11:45:58.129Z,17.00
2018-09-30T11:48:26.899Z,16.70
2018-09-30T11:50:55.642Z,16.40
2018-09-30T11:53:24.356Z,16.40
2018-09-30T11:55:53.062Z,16.50
2018-09-30T11:58:21.794Z,16.60
2018-09-30T12:00:50.656Z,16.50
2018-09-30T12:03:19.950Z,16.70
2018-09-30T12:05:48.645Z,16.90
2018-09-30T12:08:17.425Z,17.10
2018-09-30T12:10:46.217Z,17.10
2018-09-30T12:13:14.874Z,16.90
2018-09-30T12:15:43.775Z,16.70
2018-09-30T12:18:12.651Z,16.80
2018-09-30T12:20:41.550Z,16.80
2018-09-30T12:23:10.271Z,16.70
2018-09-30T12:25:38.997Z,16.70
2018-09-30T12:28:07.711Z,16.60
2018-09-30T12:30:36.456Z,16.80
2018-09-30T12:33:06.174Z,17.00
2018-09-30T12:35:34.837Z,17.10
2018-09-30T12:38:03.695Z,17.40
2018-09-30T12:40:32.465Z,17.30
2018-09-30T12:43:01.165Z,17.00
2018-09-30T12:45:29.898Z,16.90
2018-09-30T12:47:58.560Z,16.80
2018-09-30T12:50:27.453Z,16.70
2018-09-30T12:52:56.398Z,16.90
2018-09-30T12:55:25.132Z,17.40
2018-09-30T12:57:53.827Z,17.50
2018-09-30T13:00:22.474Z,17.30
2018-09-30T13:02:51.147Z,17.10
2018-09-30T13:05:19.824Z,16.90
2018-09-30T13:07:48.513Z,16.70
2018-09-30T13:10:17.272Z,16.60
2018-09-30T13:12:45.951Z,16.90
2018-09-30T13:15:14.700Z,17.10
2018-09-30T13:17:43.329Z,17.10
2018-09-30T13:20:14.245Z,16.90
2018-09-30T13:22:43.061Z,16.80
2018-09-30T13:25:11.746Z,16.80
2018-09-30T13:27:40.589Z,17.00
2018-09-30T13:30:09.430Z,17.30
2018-09-30T13:32:38.141Z,17.30
2018-09-30T13:35:07.130Z,17.20
2018-09-30T13:37:35.920Z,17.10
2018-09-30T13:40:04.673Z,17.20
2018-09-30T13:42:33.400Z,17.20
2018-09-30T13:45:02.075Z,17.30
2018-09-30T13:47:30.756Z,17.30
2018-09-30T13:49:59.531Z,17.00
2018-09-30T13:52:28.342Z,17.30
2018-09-30T13:54:57.126Z,17.40
2018-09-30T13:57:26.752Z,17.30
2018-09-30T13:59:55.431Z,17.70
2018-09-30T14:02:24.217Z,17.70
2018-09-30T14:04:52.901Z,17.50
2018-09-30T14:07:21.529Z,17.10
2018-09-30T14:09:50.221Z,16.80
2018-09-30T14:12:19.023Z,16.60
2018-09-30T14:14:47.692Z,16.50
2018-09-30T14:17:16.438Z,16.30
2018-09-30T14:19:45.217Z,16.40
2018-09-30T14:22:13.878Z,16.90
2018-09-30T14:24:45.337Z,17.20
2018-09-30T14:27:14.168Z,17.10
2018-09-30T14:29:42.870Z,17.50
2018-09-30T14:32:11.615Z,17.90
2018-09-30T14:34:40.291Z,17.60
2018-09-30T14:37:08.998Z,17.50
2018-09-30T14:39:37.630Z,17.50
2018-09-30T14:42:07.232Z,17.20
2018-09-30T14:44:35.974Z,17.10
2018-09-30T14:47:05.047Z,17.10
2018-09-30T14:49:33.753Z,17.10
2018-09-30T14:52:02.538Z,17.20
2018-09-30T14:54:31.264Z,17.30
2018-09-30T14:57:00.616Z,17.30
2018-09-30T14:59:29.377Z,17.20
2018-09-30T15:01:58.310Z,17.10
2018-09-30T15:04:27.015Z,17.00
2018-09-30T15:06:55.662Z,16.90
2018-09-30T15:09:24.404Z,16.80
2018-09-30T15:11:53.228Z,16.90
2018-09-30T15:14:21.975Z,16.90
2018-09-30T15:16:50.689Z,16.90
2018-09-30T15:19:19.435Z,16.80
2018-09-30T15:21:48.123Z,16.70
2018-09-30T15:24:16.831Z,16.70
2018-09-30T15:26:45.520Z,16.70
2018-09-30T15:29:14.327Z,16.50
2018-09-30T15:31:43.070Z,16.40
2018-09-30T15:34:11.913Z,16.20
2018-09-30T15:36:40.810Z,16.00
2018-09-30T15:39:11.098Z,15.90
2018-09-30T15:41:40.429Z,15.80
2018-09-30T15:44:09.578Z,15.70
2018-09-30T15:46:38.378Z,15.70
2018-09-30T15:49:07.456Z,15.70
2018-09-30T15:51:36.250Z,15.60
2018-09-30T15:54:05.193Z,15.60
2018-09-30T15:56:33.855Z,15.60
2018-09-30T15:59:02.530Z,15.60
2018-09-30T16:01:31.266Z,15.60
2018-09-30T16:03:59.921Z,15.60
2018-09-30T16:06:28.686Z,15.60
2018-09-30T16:08:57.355Z,15.50
2018-09-30T16:11:26.063Z,15.50
2018-09-30T16:13:54.757Z,15.50
2018-09-30T16:16:23.956Z,15.50
2018-09-30T16:18:52.716Z,15.50
2018-09-30T16:21:21.465Z,15.50
2018-09-30T16:23:50.162Z,15.40
2018-09-30T16:26:18.890Z,15.40
2018-09-30T16:28:49.114Z,15.40
2018-09-30T16:31:17.928Z,15.40
2018-09-30T16:33:46.632Z,15.40
2018-09-30T16:36:15.386Z,15.40
2018-09-30T16:38:44.207Z,15.40
2018-09-30T16:41:13.090Z,15.40
2018-09-30T16:43:41.923Z,15.40
2018-09-30T16:46:11.537Z,15.40
2018-09-30T16:48:40.232Z,15.40
2018-09-30T16:51:08.970Z,15.30
2018-09-30T16:53:38.288Z,15.30
2018-09-30T16:56:07.054Z,15.20
2018-09-30T16:58:35.702Z,15.20
2018-09-30T17:01:04.505Z,15.00
2018-09-30T17:03:33.206Z,14.90
2018-09-30T17:06:01.952Z,14.90
2018-09-30T17:08:30.912Z,14.90
2018-09-30T17:10:59.780Z,14.80
2018-09-30T17:13:28.585Z,14.80
2018-09-30T17:15:57.469Z,14.70
2018-09-30T17:18:26.206Z,14.80
2018-09-30T17:20:54.975Z,14.80
2018-09-30T17:23:23.652Z,14.80
2018-09-30T17:25:52.338Z,15.00
2018-09-30T17:28:20.981Z,15.20
2018-09-30T17:30:49.769Z,15.30
2018-09-30T17:33:18.512Z,15.30
2018-09-30T17:35:47.214Z,15.30
2018-09-30T17:38:15.903Z,15.20
2018-09-30T17:40:44.623Z,15.00
2018-09-30T17:43:13.306Z,15.00
2018-09-30T17:45:41.992Z,14.90
2018-09-30T17:48:11.703Z,14.90
2018-09-30T17:50:40.517Z,14.90
2018-09-30T17:53:09.189Z,14.90
2018-09-30T17:55:37.984Z,14.90
2018-09-30T17:58:06.692Z,14.90
2018-09-30T18:00:35.406Z,14.90
2018-09-30T18:03:04.182Z,14.90
2018-09-30T18:05:32.925Z,14.90
2018-09-30T18:08:01.658Z,14.90
2018-09-30T18:10:30.551Z,14.90
2018-09-30T18:13:00.358Z,14.90
2018-09-30T18:15:29.070Z,14.80
2018-09-30T18:17:57.732Z,14.90
2018-09-30T18:20:26.484Z,14.90
2018-09-30T18:22:55.183Z,14.90
2018-09-30T18:25:24.002Z,15.00
2018-09-30T18:27:52.699Z,15.00
2018-09-30T18:30:21.318Z,14.90
2018-09-30T18:32:50.017Z,14.90
2018-09-30T18:35:18.879Z,15.00
2018-09-30T18:37:47.751Z,15.00
2018-09-30T18:40:16.617Z,14.90
2018-09-30T18:42:45.484Z,14.80
2018-09-30T18:45:14.417Z,14.20
2018-09-30T18:47:43.232Z,14.80
2018-09-30T18:50:12.187Z,14.80
2018-09-30T18:52:41.161Z,14.70
2018-09-30T18:55:09.869Z,14.70
2018-09-30T18:57:39.102Z,14.70
2018-09-30T19:00:07.834Z,14.70
2018-09-30T19:02:36.538Z,14.60
2018-09-30T19:05:05.211Z,14.50
2018-09-30T19:07:33.955Z,14.50
2018-09-30T19:10:02.631Z,14.50
2018-09-30T19:12:31.383Z,14.50
2018-09-30T19:15:00.202Z,14.60
2018-09-30T19:17:29.185Z,14.60
2018-09-30T19:19:57.965Z,14.60
2018-09-30T19:22:26.779Z,14.60
2018-09-30T19:24:55.459Z,14.60
2018-09-30T19:27:24.153Z,14.60
2018-09-30T19:29:52.923Z,14.60
2018-09-30T19:32:21.805Z,14.50
2018-09-30T19:34:50.562Z,14.50
2018-09-30T19:37:19.359Z,14.50
2018-09-30T19:39:48.075Z,14.50
2018-09-30T19:42:16.891Z,14.50
2018-09-30T19:44:45.640Z,14.50
2018-09-30T19:47:14.348Z,14.50
2018-09-30T19:49:43.885Z,14.40
2018-09-30T19:52:12.958Z,14.40
2018-09-30T19:54:41.715Z,14.40
2018-09-30T19:57:10.431Z,14.30
2018-09-30T19:59:39.217Z,14.30
2018-09-30T20:02:08.407Z,14.30
2018-09-30T20:04:37.486Z,14.30
2018-09-30T20:07:06.280Z,14.30
2018-09-30T20:09:35.095Z,14.30
2018-09-30T20:12:03.934Z,14.30
2018-09-30T20:14:32.640Z,14.30
2018-09-30T20:17:01.360Z,14.30
2018-09-30T20:19:30.078Z,14.30
2018-09-30T20:21:58.828Z,14.20
2018-09-30T20:24:27.513Z,14.20
2018-09-30T20:26:56.284Z,14.20
2018-09-30T20:29:25.063Z,14.20
2018-09-30T20:31:54.044Z,14.20
2018-09-30T20:34:22.809Z,14.30
2018-09-30T20:36:51.619Z,14.30
2018-09-30T20:39:20.391Z,14.30
2018-09-30T20:41:49.130Z,14.30
2018-09-30T20:44:17.901Z,14.30
2018-09-30T20:46:46.681Z,14.30
2018-09-30T20:49:15.502Z,14.30
2018-09-30T20:51:44.487Z,14.30
2018-09-30T20:54:13.338Z,14.30
2018-09-30T20:56:42.061Z,14.30
2018-09-30T20:59:10.832Z,14.30
2018-09-30T21:01:39.613Z,14.30
2018-09-30T21:04:08.469Z,14.30
2018-09-30T21:06:39.546Z,14.20
2018-09-30T21:09:10.627Z,14.20
2018-09-30T21:11:39.548Z,14.20
2018-09-30T21:14:08.394Z,14.20
2018-09-30T21:16:37.294Z,14.20
2018-09-30T21:19:06.260Z,14.10
2018-09-30T21:21:35.038Z,14.10
2018-09-30T21:24:03.733Z,14.10
2018-09-30T21:26:32.443Z,14.10
2018-09-30T21:29:01.475Z,14.10
2018-09-30T21:31:30.215Z,14.10
2018-09-30T21:33:58.981Z,14.10
2018-09-30T21:36:27.761Z,14.10
2018-09-30T21:38:56.468Z,14.00
2018-09-30T21:41:25.306Z,14.00
2018-09-30T21:43:54.095Z,14.00
2018-09-30T21:46:22.870Z,13.90
2018-09-30T21:48:51.773Z,13.80
2018-09-30T21:51:20.451Z,13.70
2018-09-30T21:53:49.843Z,13.70
2018-09-30T21:56:18.487Z,13.80
2018-09-30T21:58:47.249Z,13.80
2018-09-30T22:01:16.008Z,13.90
2018-09-30T22:03:44.682Z,13.90
2018-09-30T22:06:13.423Z,13.90
2018-09-30T22:08:42.200Z,13.90
2018-09-30T22:11:10.979Z,13.90
2018-09-30T22:13:39.699Z,13.90
2018-09-30T22:16:08.452Z,14.00
2018-09-30T22:18:37.250Z,13.90
2018-09-30T22:21:06.364Z,14.00
2018-09-30T22:23:35.079Z,13.90
2018-09-30T22:26:03.935Z,14.00
2018-09-30T22:28:32.714Z,14.00
2018-09-30T22:31:01.491Z,14.00
2018-09-30T22:33:30.208Z,14.00
2018-09-30T22:35:58.947Z,14.00
2018-09-30T22:38:27.679Z,13.90
2018-09-30T22:40:56.468Z,13.80
2018-09-30T22:43:25.187Z,13.70
2018-09-30T22:45:53.948Z,13.60
2018-09-30T22:48:22.664Z,13.40
2018-09-30T22:50:51.414Z,13.00
2018-09-30T22:53:20.133Z,12.60
2018-09-30T22:55:48.855Z,12.40
2018-09-30T22:58:17.597Z,12.10
2018-09-30T23:00:46.261Z,11.90
2018-09-30T23:03:14.989Z,11.80
2018-09-30T23:05:44.415Z,11.70
2018-09-30T23:08:13.139Z,11.80
2018-09-30T23:10:41.848Z,11.80
2018-09-30T23:13:10.499Z,11.80
2018-09-30T23:15:39.189Z,11.80
2018-09-30T23:18:07.965Z,11.80
2018-09-30T23:20:36.844Z,11.70
2018-09-30T23:23:06.176Z,11.80
2018-09-30T23:25:34.929Z,11.80
2018-09-30T23:28:03.573Z,11.80
2018-09-30T23:30:32.273Z,11.70
2018-09-30T23:33:00.965Z,11.50
2018-09-30T23:35:29.702Z,11.50
2018-09-30T23:37:58.343Z,11.50
2018-09-30T23:40:27.132Z,11.50
2018-09-30T23:42:55.780Z,11.50
2018-09-30T23:45:24.498Z,11.50
2018-09-30T23:47:53.171Z,11.50
2018-09-30T23:50:21.834Z,11.70
2018-09-30T23:52:50.623Z,11.70
2018-09-30T23:55:19.944Z,11.80
2018-09-30T23:57:48.755Z,11.80
